49OH weather

Sky Ranch Airport
West Jefferson, Ohio, United States

Public forecast

Using degrees Fahrenheit for public forecast. Weather courtesy of forecast.io.

Closest aviation weather report (METAR) to Sky Ranch Airport

Closest report is Bolton Field, 5.0 nm (9.3 km) ESE. Retrieved 2020/06/02 02:15 UTC (22 minutes ago):

KTZR 020215Z AUTO 20007KT 10SM OVC110 19/05 A3016 RMK AO2 T01940047

Closest aviation forecast (TAF) to Sky Ranch Airport

Closest forecast is Rickenbacker International Airport, 16.0 nm (29.6 km) ESE. Retrieved 2020-06-02 00:58 UTC (2 hours ago):

TAF KLCK 012339Z 0200/0224 19003KT P6SM BKN100 FM021200 21010KT P6SM FEW060 FM021500 25015G23KT P6SM FEW070